NCAR-RAP Real-Time Weather Data

Output produced by METARs form (08 May 2021  00:53 UTC)
found at http://weather.rap.ucar.edu/surface/
 
KFSD 072356Z 05008KT 10SM FEW090 SCT250 16/M06 A3002 RMK AO2 SLP171 T01611061 10178 20156 56019
KFSD 072256Z VRB06KT 10SM FEW090 FEW250 17/M07 A3003 RMK AO2 SLP176 T01721072
KFSD 072156Z VRB05KT 10SM FEW090 FEW250 18/M06 A3005 RMK AO2 SLP182 T01781056
KFSD 072056Z 04009G18KT 10SM FEW250 17/M06 A3008 RMK AO2 SLP189 T01721056 56023
KFSD 071956Z COR 04011G16KT 10SM FEW090 FEW250 18/M04 A3010 RMK AO2 SLP194 T01781044
KFSD 071856Z 06005G15KT 10SM FEW090 FEW250 16/M04 A3012 RMK AO2 SLP203 T01611044
KFSD 071756Z 01011G18KT 10SM CLR 16/M04 A3015 RMK AO2 SLP212 T01561044 10156 20039 58009
KFSD 071656Z 01011G21KT 10SM CLR 15/M03 A3017 RMK AO2 SLP219 T01501033
KFSD 071556Z 03008G17KT 10SM CLR 13/M03 A3017 RMK AO2 SLP223 T01331033
KFSD 071456Z 04009KT 10SM CLR 13/M01 A3018 RMK AO2 SLP223 T01281011 50008
KFSD 071356Z 03008KT 10SM CLR 10/M01 A3019 RMK AO2 SLP227 T01001006
KFSD 071256Z 00000KT 10SM CLR 07/00 A3017 RMK AO2 SLP221 T00720000
KFSD 071156Z 36003KT 10SM CLR 04/M01 A3015 RMK AO2 SLP216 T00391011 10117 20022 53009
KFSD 071056Z 00000KT 10SM CLR 02/M02 A3013 RMK AO2 SLP209 T00221017
KFSD 070956Z 03005KT 10SM CLR 04/M01 A3012 RMK AO2 SLP206 T00391011